Portada
METAR-TAF:

METAR-TAF

Aeroports :

Tarba-Lorda, França

latitud: 43-11N, longitud: 000-00W, altitud: 379 m

Observació

L'informe es va fer fa 25 minuts, a les 04:30 UTC
Vent 4 kt del Sud/Sud-Est
Temperatura 1°C
Humitat 93%
Pressió 1030 hPa
Visibilitat 10 km o més
sense núvols per sota de 1500 mi sense presència de cumulonimbus.

METAR: LFBT 200430Z AUTO 16004KT CAVOK 01/00 Q1030 NOSIG

Hora: 05:55 (04:55 UTC)

Pronòstic

L'informe es va fer fa 2 hores i 46 minuts, a les 02:09 UTC
Pronòstic vàlid del 20 a les 02 UTC al 20 a les 24 UTC
Vent 3 kt amb direcció variable
Visibilitat 10 km o més
Cel ennuvolat a una alçada de 7000 ft
Evolucionant progressivament
l' 20 a les 05 UTC al 20 a les 07 UTC
Visibilitat 10 km o més
sense núvols per sota de 1500 mi sense presència de cumulonimbus.

TAF: LFBT 200209Z 2002/2024 VRB03KT 9999 BKN070 BECMG 2005/2007 CAVOK

Observacions i pronòstics meteorològics de més de 4000 aeroports (METAR i TAF).

Les estacions disponibles són els punts grocs i vermells al mapa.

Posi el ratolí al punt desitjat per veure el nom de l'estació.

Feu clic per veure les observacions i els pronòstics meteorològics.

Per canviar el mapa: feu clic els botons verds amb una creu de color negre per apropar; al botó verd amb un guió per allunyar la imatge; o en les fletxes verdes per a mapes adjacents.


METAR-TAF: